Time;durP1;ratioP1;P1;durP2;ratioP2;P2;SDS_P1;SDS_P2;PMS_P1;PMS_P2;Temp;Humidity;BMP_temperature;BMP_pressure;BME280_temperature;BME280_humidity;BME280_pressure;Samples;Min_cycle;Max_cycle;Signal;HPM_P1;HPM_P2
2022/12/22 03:25:59;;;;;;;;;6.67;2.00;;;;;;;;5058948;28;44798;-77
2022/12/22 03:28:27;;;;;;;;;10.00;2.00;;;;;;;;5044614;28;45239;-77
2022/12/22 03:30:53;;;;;;;;;4.00;1.00;;;;;;;;5055817;28;45432;-77
2022/12/22 03:33:19;;;;;;;;;3.67;3.67;;;;;;;;5048546;28;45273;-77
2022/12/22 03:35:44;;;;;;;;;4.33;2.00;;;;;;;;5042949;28;45230;-77
2022/12/22 03:38:09;;;;;;;;;1.00;1.00;;;;;;;;5050068;28;45442;-77
2022/12/22 03:40:34;;;;;;;;;2.00;1.00;;;;;;;;5042901;28;46609;-77
2022/12/22 03:48:27;;;;;;;;;3.67;1.00;;;;;;;;5053037;28;45293;-76
2022/12/22 03:50:52;;;;;;;;;5.00;1.00;;;;;;;;5041151;28;47343;-77
2022/12/22 03:53:17;;;;;;;;;0.67;0.33;;;;;;;;5055394;28;45285;-77
2022/12/22 03:55:43;;;;;;;;;3.00;1.00;;;;;;;;5061047;28;45186;-77
2022/12/22 03:58:08;;;;;;;;;3.00;1.00;;;;;;;;5055576;28;45460;-76
2022/12/22 04:00:33;;;;;;;;;1.33;1.33;;;;;;;;5057880;28;45406;-76
2022/12/22 04:02:58;;;;;;;;;4.33;1.00;;;;;;;;5040665;28;45439;-76
2022/12/22 04:05:24;;;;;;;;;2.67;2.00;;;;;;;;5039565;28;45180;-77
2022/12/22 04:07:49;;;;;;;;;1.00;1.00;;;;;;;;5041961;28;46869;-76
2022/12/22 04:12:58;;;;;;;;;1.00;1.00;;;;;;;;5055778;28;45391;-76
2022/12/22 04:15:28;;;;;;;;;3.33;1.00;;;;;;;;5059696;28;45349;-76
2022/12/22 04:17:53;;;;;;;;;3.33;0.00;;;;;;;;5048719;28;45358;-76
2022/12/22 04:20:19;;;;;;;;;2.67;1.00;;;;;;;;5059984;28;45317;-76
2022/12/22 04:22:44;;;;;;;;;3.33;0.33;;;;;;;;5048564;28;45447;-76
2022/12/22 04:25:09;;;;;;;;;2.00;2.00;;;;;;;;5057249;28;45169;-77
2022/12/22 04:27:35;;;;;;;;;2.00;1.00;;;;;;;;5050673;28;45427;-76
2022/12/22 04:30:00;;;;;;;;;2.33;0.00;;;;;;;;5058261;28;46092;-76
2022/12/22 04:32:25;;;;;;;;;2.00;0.00;;;;;;;;5051799;28;45411;-76
2022/12/22 04:34:50;;;;;;;;;5.00;1.00;;;;;;;;5040973;28;45238;-76
2022/12/22 04:37:15;;;;;;;;;2.33;0.00;;;;;;;;5041286;28;45401;-76
2022/12/22 04:39:41;;;;;;;;;2.00;1.00;;;;;;;;5050514;28;45396;-76
2022/12/22 04:42:06;;;;;;;;;0.00;0.00;;;;;;;;5050913;28;45225;-76
2022/12/22 04:44:31;;;;;;;;;2.67;0.33;;;;;;;;5050618;28;45333;-76
2022/12/22 04:46:56;;;;;;;;;0.67;0.00;;;;;;;;5039910;28;45816;-76
2022/12/22 04:49:22;;;;;;;;;0.00;0.00;;;;;;;;5051029;28;45423;-76
2022/12/22 04:51:47;;;;;;;;;2.33;1.00;;;;;;;;5053927;28;45362;-76
2022/12/22 04:54:12;;;;;;;;;0.00;0.00;;;;;;;;5053712;28;45365;-76
2022/12/22 04:56:37;;;;;;;;;3.33;0.33;;;;;;;;5056716;28;45410;-76
2022/12/22 04:59:02;;;;;;;;;4.67;0.33;;;;;;;;5033349;28;45384;-76
2022/12/22 05:01:28;;;;;;;;;0.33;0.00;;;;;;;;5056194;28;45426;-75
2022/12/22 05:03:53;;;;;;;;;0.00;0.00;;;;;;;;5051567;28;45296;-75
2022/12/22 05:06:18;;;;;;;;;2.67;0.67;;;;;;;;5057581;28;45170;-76
2022/12/22 05:08:43;;;;;;;;;0.00;0.00;;;;;;;;5053634;28;45177;-76
2022/12/22 05:11:09;;;;;;;;;2.00;0.00;;;;;;;;5057415;28;44642;-76
2022/12/22 05:13:34;;;;;;;;;3.00;0.00;;;;;;;;5056307;28;45324;-75
2022/12/22 05:16:06;;;;;;;;;1.00;0.00;;;;;;;;5039902;28;46001;-76
2022/12/22 05:18:33;;;;;;;;;0.00;0.00;;;;;;;;5045141;28;46115;-76
2022/12/22 05:21:00;;;;;;;;;0.00;0.00;;;;;;;;5055645;28;45611;-76
2022/12/22 05:23:25;;;;;;;;;1.00;0.00;;;;;;;;5046646;28;45375;-76
2022/12/22 05:25:51;;;;;;;;;0.00;0.00;;;;;;;;5050385;28;45507;-76
2022/12/22 05:28:16;;;;;;;;;0.00;0.00;;;;;;;;5048323;28;46149;-75
2022/12/22 05:30:41;;;;;;;;;0.00;0.00;;;;;;;;5056199;28;45236;-75
2022/12/22 05:33:06;;;;;;;;;0.00;0.00;;;;;;;;5051499;28;45584;-75
2022/12/22 05:35:31;;;;;;;;;0.00;0.00;;;;;;;;5055563;28;45412;-74
2022/12/22 05:37:57;;;;;;;;;0.00;0.00;;;;;;;;5052132;28;45408;-73
2022/12/22 05:40:22;;;;;;;;;1.00;0.00;;;;;;;;5052616;28;45368;-73
2022/12/22 05:42:47;;;;;;;;;0.00;0.00;;;;;;;;5052373;28;45278;-73
2022/12/22 05:45:14;;;;;;;;;0.00;0.00;;;;;;;;5041136;28;45329;-73
2022/12/22 05:47:40;;;;;;;;;0.00;0.00;;;;;;;;5052071;28;45466;-74
2022/12/22 05:50:06;;;;;;;;;0.00;0.00;;;;;;;;5059931;28;45266;-73
2022/12/22 05:52:31;;;;;;;;;0.00;0.00;;;;;;;;5050942;28;45454;-74
2022/12/22 05:54:56;;;;;;;;;0.00;0.00;;;;;;;;5041033;28;46129;-75
2022/12/22 05:57:21;;;;;;;;;0.00;0.00;;;;;;;;5055182;28;45439;-75
2022/12/22 05:59:47;;;;;;;;;0.00;0.00;;;;;;;;5054054;28;45285;-74
2022/12/22 06:02:12;;;;;;;;;0.00;0.00;;;;;;;;5050099;28;45245;-75
2022/12/22 06:04:37;;;;;;;;;0.00;0.00;;;;;;;;5053324;28;45303;-75
2022/12/22 06:07:02;;;;;;;;;0.67;0.00;;;;;;;;5051889;28;45579;-74
2022/12/22 06:09:27;;;;;;;;;0.00;0.00;;;;;;;;5036475;28;45747;-75
2022/12/22 06:11:53;;;;;;;;;0.00;0.00;;;;;;;;5054812;28;45380;-75
2022/12/22 06:14:18;;;;;;;;;0.00;0.00;;;;;;;;5055325;28;45244;-75
2022/12/22 06:16:43;;;;;;;;;0.00;0.00;;;;;;;;5053107;28;45316;-73
2022/12/22 06:19:08;;;;;;;;;0.00;0.00;;;;;;;;5050535;28;45251;-74
2022/12/22 06:21:33;;;;;;;;;0.00;0.00;;;;;;;;5054613;28;45213;-74
2022/12/22 06:23:59;;;;;;;;;1.00;0.00;;;;;;;;5033263;28;45251;-76
2022/12/22 06:26:24;;;;;;;;;0.00;0.00;;;;;;;;5052538;28;46106;-75
2022/12/22 06:28:49;;;;;;;;;0.00;0.00;;;;;;;;5045175;28;45330;-75
2022/12/22 06:31:14;;;;;;;;;0.00;0.00;;;;;;;;5055791;28;45213;-76
2022/12/22 06:33:40;;;;;;;;;0.00;0.00;;;;;;;;5045894;28;45388;-76
2022/12/22 06:36:06;;;;;;;;;0.00;0.00;;;;;;;;5037671;28;47072;-76
2022/12/22 06:38:31;;;;;;;;;0.00;0.00;;;;;;;;5049213;28;45454;-77
2022/12/22 06:40:56;;;;;;;;;0.00;0.00;;;;;;;;5038603;28;45331;-76
2022/12/22 06:43:21;;;;;;;;;0.00;0.00;;;;;;;;5050954;28;45376;-76
2022/12/22 06:45:46;;;;;;;;;0.00;0.00;;;;;;;;5058306;28;46276;-75
2022/12/22 06:48:12;;;;;;;;;0.00;0.00;;;;;;;;5046005;28;45356;-75
2022/12/22 06:50:38;;;;;;;;;0.00;0.00;;;;;;;;5046452;28;44821;-76
2022/12/22 06:53:03;;;;;;;;;0.33;0.00;;;;;;;;5035370;28;45865;-77
2022/12/22 06:55:29;;;;;;;;;1.00;0.00;;;;;;;;5053329;28;45328;-76
2022/12/22 06:57:54;;;;;;;;;0.00;0.00;;;;;;;;5055075;28;45394;-76
2022/12/22 07:00:19;;;;;;;;;1.33;0.00;;;;;;;;5040165;28;45312;-76
2022/12/22 07:02:45;;;;;;;;;1.00;0.00;;;;;;;;5047942;28;45539;-76
2022/12/22 07:05:10;;;;;;;;;1.00;1.00;;;;;;;;5039878;28;46944;-75
2022/12/22 07:07:35;;;;;;;;;2.00;1.67;;;;;;;;5049541;28;45221;-75
2022/12/22 07:10:00;;;;;;;;;2.00;0.00;;;;;;;;5056035;28;45206;-76
2022/12/22 07:12:26;;;;;;;;;1.67;1.67;;;;;;;;5034943;28;45310;-76
2022/12/22 07:14:51;;;;;;;;;3.00;1.67;;;;;;;;5057177;28;45407;-76
2022/12/22 07:17:16;;;;;;;;;2.67;1.67;;;;;;;;5035778;28;45602;-76
2022/12/22 07:19:41;;;;;;;;;3.00;2.00;;;;;;;;5054539;28;45196;-76
2022/12/22 07:22:07;;;;;;;;;1.00;1.00;;;;;;;;5053324;28;45483;-76
2022/12/22 07:24:32;;;;;;;;;2.00;2.00;;;;;;;;5055433;28;46049;-76
2022/12/22 07:26:58;;;;;;;;;6.67;3.00;;;;;;;;5052205;28;45285;-76
2022/12/22 07:29:23;;;;;;;;;4.00;2.67;;;;;;;;5055958;28;44687;-76
2022/12/22 07:31:48;;;;;;;;;4.33;2.00;;;;;;;;5056341;28;44829;-76
2022/12/22 07:34:13;;;;;;;;;7.67;3.00;;;;;;;;5052553;28;45029;-76
2022/12/22 07:36:39;;;;;;;;;6.33;3.33;;;;;;;;5056724;28;45749;-76
2022/12/22 07:39:04;;;;;;;;;5.33;2.67;;;;;;;;5043084;28;45307;-76
2022/12/22 07:44:13;;;;;;;;;7.67;3.00;;;;;;;;5057320;28;45730;-76
2022/12/22 07:46:39;;;;;;;;;8.67;5.00;;;;;;;;5055901;28;45410;-76
2022/12/22 07:51:49;;;;;;;;;12.33;4.00;;;;;;;;5057239;28;45222;-76
2022/12/22 07:54:15;;;;;;;;;10.67;8.67;;;;;;;;5053977;28;45194;-76
2022/12/22 07:56:41;;;;;;;;;9.33;5.00;;;;;;;;5058501;28;45324;-75
2022/12/22 07:59:06;;;;;;;;;11.00;5.00;;;;;;;;5054614;28;45361;-75
2022/12/22 08:01:32;;;;;;;;;8.00;6.00;;;;;;;;5056960;28;45471;-75
2022/12/22 08:03:57;;;;;;;;;11.67;4.33;;;;;;;;5054704;28;45308;-75
2022/12/22 08:06:22;;;;;;;;;9.33;5.33;;;;;;;;5058227;28;45336;-75
2022/12/22 08:08:47;;;;;;;;;19.00;7.33;;;;;;;;5040927;28;45305;-76
2022/12/22 08:11:13;;;;;;;;;9.67;7.33;;;;;;;;5058125;28;45660;-75
2022/12/22 08:13:38;;;;;;;;;9.33;7.00;;;;;;;;5056991;28;46148;-75
2022/12/22 08:16:05;;;;;;;;;6.00;5.00;;;;;;;;5058428;28;45381;-75
2022/12/22 08:18:30;;;;;;;;;9.33;7.67;;;;;;;;5036903;28;45419;-75
2022/12/22 08:20:55;;;;;;;;;10.67;7.00;;;;;;;;5058924;28;45230;-75
2022/12/22 08:23:21;;;;;;;;;20.67;9.67;;;;;;;;5049407;28;46661;-76
2022/12/22 08:25:48;;;;;;;;;20.33;10.33;;;;;;;;5060258;28;45260;-76
2022/12/22 08:28:15;;;;;;;;;10.67;7.00;;;;;;;;5049721;28;45413;-76
2022/12/22 08:30:41;;;;;;;;;13.00;7.33;;;;;;;;5052419;28;45460;-76
2022/12/22 08:33:06;;;;;;;;;16.67;10.00;;;;;;;;5051128;28;45400;-76
2022/12/22 08:35:32;;;;;;;;;12.00;6.00;;;;;;;;5056384;28;45301;-76
2022/12/22 08:37:57;;;;;;;;;12.00;5.67;;;;;;;;5053167;28;45431;-75
2022/12/22 08:40:23;;;;;;;;;11.00;9.00;;;;;;;;5052734;28;45522;-76
2022/12/22 08:42:50;;;;;;;;;19.00;8.00;;;;;;;;5052922;28;45376;-76
2022/12/22 08:45:15;;;;;;;;;10.00;6.00;;;;;;;;5053521;28;45206;-75
2022/12/22 08:47:41;;;;;;;;;11.33;8.00;;;;;;;;5036248;28;45188;-74
2022/12/22 08:50:07;;;;;;;;;16.00;12.33;;;;;;;;5054581;28;45218;-73
2022/12/22 08:52:32;;;;;;;;;16.00;9.00;;;;;;;;5034631;28;46055;-74
2022/12/22 08:54:57;;;;;;;;;13.67;8.33;;;;;;;;5056035;28;45274;-74
2022/12/22 08:57:22;;;;;;;;;17.67;11.00;;;;;;;;5034993;28;45920;-73
2022/12/22 08:59:48;;;;;;;;;20.33;8.00;;;;;;;;5055099;28;45247;-75
2022/12/22 09:02:13;;;;;;;;;19.33;10.33;;;;;;;;5052040;28;46286;-75
2022/12/22 09:04:38;;;;;;;;;13.67;6.67;;;;;;;;5035638;28;45294;-74
2022/12/22 09:07:03;;;;;;;;;13.67;8.33;;;;;;;;5054683;28;45400;-75
2022/12/22 09:09:33;;;;;;;;;19.33;8.67;;;;;;;;5051000;28;45444;-74
2022/12/22 09:11:58;;;;;;;;;24.00;15.67;;;;;;;;5054216;28;45303;-75
2022/12/22 09:14:23;;;;;;;;;19.67;11.00;;;;;;;;5049930;28;45426;-75
2022/12/22 09:16:49;;;;;;;;;16.67;13.00;;;;;;;;5053482;28;45341;-74
2022/12/22 09:19:15;;;;;;;;;13.33;10.00;;;;;;;;5030436;28;45393;-75
2022/12/22 09:21:40;;;;;;;;;23.67;19.33;;;;;;;;5052604;28;45240;-75
2022/12/22 09:24:08;;;;;;;;;19.67;12.00;;;;;;;;5039925;28;45425;-74
2022/12/22 09:26:34;;;;;;;;;15.33;6.67;;;;;;;;5037837;28;45468;-75
2022/12/22 09:28:59;;;;;;;;;14.33;10.00;;;;;;;;5049347;28;45336;-75
2022/12/22 09:31:25;;;;;;;;;14.33;10.00;;;;;;;;5055782;28;45527;-75
2022/12/22 09:33:50;;;;;;;;;15.00;13.00;;;;;;;;5049626;28;45254;-75
2022/12/22 09:36:16;;;;;;;;;7.67;4.67;;;;;;;;5039267;28;45930;-75
2022/12/22 09:38:42;;;;;;;;;12.00;10.00;;;;;;;;5046508;28;45250;-75
2022/12/22 09:41:13;;;;;;;;;12.67;7.33;;;;;;;;5055338;28;45249;-75
2022/12/22 09:43:38;;;;;;;;;16.00;12.00;;;;;;;;5049802;28;45402;-75
2022/12/22 09:46:04;;;;;;;;;18.67;9.67;;;;;;;;5057368;28;45338;-75
2022/12/22 09:48:34;;;;;;;;;22.33;9.00;;;;;;;;5050463;28;45244;-75
2022/12/22 09:51:00;;;;;;;;;17.67;9.33;;;;;;;;5055027;28;45367;-75
2022/12/22 09:53:25;;;;;;;;;18.67;10.00;;;;;;;;5036613;28;45348;-75
2022/12/22 09:55:50;;;;;;;;;15.67;12.33;;;;;;;;5039709;28;45419;-75
2022/12/22 09:58:33;;;;;;;;;15.00;9.00;;;;;;;;5035833;28;45914;-75
2022/12/22 10:01:01;;;;;;;;;9.67;7.67;;;;;;;;5056795;28;45584;-75
2022/12/22 10:03:31;;;;;;;;;16.33;8.67;;;;;;;;5052359;28;45257;-75
2022/12/22 10:06:02;;;;;;;;;14.67;7.67;;;;;;;;5057836;28;45356;-75
2022/12/22 10:08:30;;;;;;;;;13.00;9.67;;;;;;;;5052969;28;45400;-75
2022/12/22 10:10:56;;;;;;;;;11.67;7.00;;;;;;;;5057558;28;45679;-75
2022/12/22 10:13:21;;;;;;;;;16.00;9.67;;;;;;;;5050916;28;45314;-75
2022/12/22 10:15:47;;;;;;;;;14.00;7.33;;;;;;;;5058880;28;45348;-75
2022/12/22 10:18:20;;;;;;;;;15.33;7.67;;;;;;;;5049431;28;45261;-75
2022/12/22 10:21:05;;;;;;;;;20.67;10.33;;;;;;;;5056844;28;45293;-75
2022/12/22 10:23:33;;;;;;;;;11.00;8.67;;;;;;;;5041280;28;45385;-75
2022/12/22 10:26:07;;;;;;;;;11.33;4.67;;;;;;;;5033304;28;45409;-74
2022/12/22 10:28:34;;;;;;;;;19.33;12.33;;;;;;;;5046729;28;45473;-75
2022/12/22 10:31:14;;;;;;;;;13.67;8.67;;;;;;;;5052434;28;45312;-74
2022/12/22 10:33:40;;;;;;;;;15.67;12.33;;;;;;;;5048321;28;45328;-74
2022/12/22 10:36:06;;;;;;;;;7.33;6.67;;;;;;;;5056380;28;45446;-72
2022/12/22 10:38:31;;;;;;;;;13.33;9.00;;;;;;;;5049101;28;45586;-72
2022/12/22 10:40:58;;;;;;;;;16.67;11.33;;;;;;;;5054247;28;45524;-71
2022/12/22 10:43:26;;;;;;;;;19.67;8.00;;;;;;;;5049243;28;45351;-71
2022/12/22 10:45:53;;;;;;;;;27.00;19.67;;;;;;;;5037559;28;45429;-71
2022/12/22 10:48:26;;;;;;;;;21.33;14.67;;;;;;;;5030619;28;45421;-72
2022/12/22 10:50:51;;;;;;;;;13.33;9.00;;;;;;;;5035438;28;45595;-71
2022/12/22 10:53:17;;;;;;;;;9.67;7.67;;;;;;;;5031681;28;45155;-72
2022/12/22 10:55:43;;;;;;;;;12.33;8.00;;;;;;;;5039024;28;45542;-75
2022/12/22 10:58:08;;;;;;;;;10.33;8.67;;;;;;;;5029070;28;45352;-72
2022/12/22 11:00:33;;;;;;;;;15.33;10.00;;;;;;;;5039066;28;46418;-73
2022/12/22 11:03:00;;;;;;;;;18.00;12.67;;;;;;;;5028334;28;45336;-73
2022/12/22 11:05:25;;;;;;;;;17.67;12.33;;;;;;;;5038944;28;45240;-73
2022/12/22 11:07:51;;;;;;;;;9.33;6.67;;;;;;;;5030759;28;45434;-72
2022/12/22 11:10:17;;;;;;;;;18.33;11.00;;;;;;;;5038479;28;45361;-72
2022/12/22 11:12:48;;;;;;;;;21.33;9.00;;;;;;;;5032721;28;45315;-72
2022/12/22 11:15:24;;;;;;;;;20.33;12.00;;;;;;;;5038747;28;45324;-73
2022/12/22 11:18:08;;;;;;;;;22.33;11.33;;;;;;;;5030419;28;45447;-73
2022/12/22 11:20:39;;;;;;;;;17.00;10.00;;;;;;;;5035766;28;46202;-72
2022/12/22 11:23:14;;;;;;;;;15.33;9.00;;;;;;;;5031753;28;45526;-72
2022/12/22 11:25:40;;;;;;;;;8.00;5.67;;;;;;;;5038598;28;45319;-72
2022/12/22 11:28:14;;;;;;;;;12.00;10.00;;;;;;;;5026087;28;45258;-72
2022/12/22 11:30:52;;;;;;;;;20.33;7.33;;;;;;;;5038027;28;48362;-71
2022/12/22 11:33:36;;;;;;;;;8.33;4.67;;;;;;;;5036271;28;45407;-72
2022/12/22 11:36:08;;;;;;;;;18.00;11.00;;;;;;;;5038360;28;45232;-72
2022/12/22 11:38:40;;;;;;;;;8.67;7.33;;;;;;;;5031929;28;45309;-72
2022/12/22 11:41:05;;;;;;;;;11.33;7.67;;;;;;;;5036091;28;46174;-71
2022/12/22 11:43:31;;;;;;;;;14.00;8.67;;;;;;;;5029624;28;45377;-72
2022/12/22 11:45:59;;;;;;;;;13.33;7.00;;;;;;;;5038747;28;45263;-72
2022/12/22 11:48:43;;;;;;;;;10.00;6.00;;;;;;;;5032194;28;46812;-71
2022/12/22 11:51:17;;;;;;;;;18.33;7.00;;;;;;;;5038443;28;45406;-71
2022/12/22 11:53:54;;;;;;;;;16.33;10.00;;;;;;;;5034230;28;45359;-72
2022/12/22 11:56:28;;;;;;;;;8.67;6.33;;;;;;;;5038604;28;45325;-72
2022/12/22 11:59:02;;;;;;;;;10.33;8.00;;;;;;;;5030854;28;45376;-71
2022/12/22 12:01:30;;;;;;;;;15.33;8.00;;;;;;;;5033536;28;45382;-72
2022/12/22 12:04:09;;;;;;;;;11.00;9.00;;;;;;;;5035610;28;44952;-71
2022/12/22 12:06:52;;;;;;;;;16.67;10.33;;;;;;;;5037264;28;45177;-72
2022/12/22 12:09:25;;;;;;;;;11.67;8.00;;;;;;;;5030976;28;46056;-72
2022/12/22 12:11:50;;;;;;;;;12.67;8.00;;;;;;;;5033509;28;46701;-71
2022/12/22 12:14:15;;;;;;;;;12.67;11.00;;;;;;;;5029019;28;45277;-71
2022/12/22 12:16:40;;;;;;;;;10.00;7.00;;;;;;;;5034044;28;45274;-73
2022/12/22 12:19:24;;;;;;;;;11.67;8.00;;;;;;;;5021145;28;45336;-71
2022/12/22 12:21:52;;;;;;;;;16.00;9.67;;;;;;;;5031448;28;45188;-72
2022/12/22 12:24:29;;;;;;;;;17.33;9.00;;;;;;;;5022266;28;45293;-72
2022/12/22 12:26:55;;;;;;;;;13.67;9.00;;;;;;;;5031369;28;45326;-72
2022/12/22 12:29:24;;;;;;;;;10.00;5.33;;;;;;;;5029051;28;45385;-71
2022/12/22 12:31:49;;;;;;;;;12.33;8.33;;;;;;;;5035956;28;46054;-72
2022/12/22 12:34:15;;;;;;;;;13.00;5.67;;;;;;;;5031325;28;45364;-72
2022/12/22 12:36:59;;;;;;;;;10.33;8.67;;;;;;;;5035553;28;45536;-74
2022/12/22 12:39:38;;;;;;;;;18.67;8.33;;;;;;;;5034580;28;45482;-71
2022/12/22 12:42:09;;;;;;;;;16.00;9.33;;;;;;;;5035931;28;45364;-71
2022/12/22 12:44:35;;;;;;;;;10.67;8.00;;;;;;;;5038891;28;45484;-71
2022/12/22 12:47:03;;;;;;;;;13.33;10.00;;;;;;;;5032809;28;45457;-73
2022/12/22 12:49:35;;;;;;;;;12.33;9.00;;;;;;;;5030713;28;46148;-73
2022/12/22 12:52:07;;;;;;;;;13.00;8.33;;;;;;;;5032778;28;45553;-71
2022/12/22 12:54:32;;;;;;;;;8.33;7.00;;;;;;;;5028732;28;45292;-73
2022/12/22 12:57:17;;;;;;;;;11.00;8.00;;;;;;;;5034789;28;45303;-71
2022/12/22 12:59:46;;;;;;;;;12.67;7.00;;;;;;;;5021945;28;45639;-71
2022/12/22 13:02:27;;;;;;;;;16.00;11.00;;;;;;;;5035519;28;46954;-70
2022/12/22 13:05:13;;;;;;;;;13.67;9.67;;;;;;;;5034616;28;44730;-71
2022/12/22 13:07:57;;;;;;;;;8.33;7.33;;;;;;;;5032661;28;45293;-74
2022/12/22 13:10:23;;;;;;;;;16.00;8.67;;;;;;;;5038479;28;45629;-73
2022/12/22 13:12:53;;;;;;;;;13.67;7.33;;;;;;;;5028386;28;45405;-74
2022/12/22 13:15:32;;;;;;;;;21.33;9.00;;;;;;;;5037661;28;45339;-77
2022/12/22 13:17:58;;;;;;;;;16.33;11.00;;;;;;;;5029448;28;45505;-77
2022/12/22 13:20:25;;;;;;;;;15.33;8.00;;;;;;;;5031500;28;45336;-75
2022/12/22 13:22:52;;;;;;;;;12.67;10.00;;;;;;;;5031338;28;45655;-75
2022/12/22 13:25:17;;;;;;;;;9.00;6.00;;;;;;;;5032886;28;45257;-74
2022/12/22 13:27:42;;;;;;;;;14.33;10.33;;;;;;;;5033629;28;45223;-77
2022/12/22 13:30:12;;;;;;;;;12.33;8.67;;;;;;;;5033998;28;45293;-75
2022/12/22 13:32:39;;;;;;;;;8.33;7.33;;;;;;;;5034471;28;48386;-76
2022/12/22 13:35:13;;;;;;;;;15.33;10.33;;;;;;;;5037055;28;45358;-76
2022/12/22 13:37:40;;;;;;;;;12.33;8.33;;;;;;;;5032443;28;45773;-76
2022/12/22 13:40:06;;;;;;;;;14.00;8.67;;;;;;;;5034263;28;46322;-75
2022/12/22 13:42:34;;;;;;;;;14.00;7.67;;;;;;;;5032559;28;45545;-76
2022/12/22 13:44:59;;;;;;;;;10.00;6.00;;;;;;;;5036945;28;45289;-76
2022/12/22 13:47:26;;;;;;;;;12.67;9.67;;;;;;;;5033515;28;45378;-76
2022/12/22 13:49:51;;;;;;;;;17.00;8.00;;;;;;;;5037428;28;46712;-76
2022/12/22 13:52:17;;;;;;;;;15.33;10.33;;;;;;;;5033878;28;45476;-75
2022/12/22 13:54:44;;;;;;;;;10.33;7.67;;;;;;;;5036818;28;45314;-75
2022/12/22 13:57:17;;;;;;;;;16.67;7.00;;;;;;;;5034636;28;45506;-75
2022/12/22 13:59:44;;;;;;;;;11.67;7.00;;;;;;;;5028966;28;44766;-75
2022/12/22 14:02:13;;;;;;;;;14.00;9.00;;;;;;;;5032528;28;45851;-75
2022/12/22 14:04:40;;;;;;;;;10.33;8.00;;;;;;;;5034994;28;45312;-75
2022/12/22 14:07:11;;;;;;;;;13.33;9.67;;;;;;;;5033965;28;45238;-75
2022/12/22 14:09:36;;;;;;;;;9.00;6.33;;;;;;;;5029849;28;45349;-75
2022/12/22 14:12:01;;;;;;;;;15.67;9.00;;;;;;;;5035073;28;46308;-74
2022/12/22 14:14:28;;;;;;;;;10.00;6.33;;;;;;;;5029638;28;45330;-75
2022/12/22 14:16:55;;;;;;;;;12.00;8.00;;;;;;;;5032759;28;45253;-75
2022/12/22 14:19:21;;;;;;;;;7.00;6.00;;;;;;;;5027842;28;45866;-74
2022/12/22 14:21:49;;;;;;;;;9.00;7.33;;;;;;;;5035230;28;45379;-74
2022/12/22 14:24:18;;;;;;;;;9.67;6.67;;;;;;;;5030215;28;45455;-74
2022/12/22 14:26:43;;;;;;;;;12.33;6.00;;;;;;;;5034057;28;45343;-74
2022/12/22 14:29:13;;;;;;;;;8.33;5.33;;;;;;;;5024912;28;45506;-75
2022/12/22 14:31:57;;;;;;;;;14.00;6.67;;;;;;;;5037516;28;45651;-75
2022/12/22 14:34:24;;;;;;;;;7.67;6.00;;;;;;;;5033012;28;45337;-75
2022/12/22 14:36:49;;;;;;;;;8.67;4.67;;;;;;;;5038035;28;45427;-75
2022/12/22 14:39:22;;;;;;;;;8.00;4.00;;;;;;;;5036281;28;45056;-75
2022/12/22 14:41:50;;;;;;;;;12.33;9.00;;;;;;;;5036853;28;45438;-75
2022/12/22 14:44:21;;;;;;;;;8.67;4.67;;;;;;;;5035422;28;45361;-75
2022/12/22 14:47:07;;;;;;;;;13.33;5.33;;;;;;;;5037106;28;45605;-75
2022/12/22 14:49:33;;;;;;;;;6.00;5.00;;;;;;;;5036372;28;45471;-75
2022/12/22 14:52:15;;;;;;;;;12.33;5.00;;;;;;;;5058167;28;45360;-75
2022/12/22 14:54:44;;;;;;;;;9.67;5.00;;;;;;;;5055197;28;45420;-75
2022/12/22 14:57:12;;;;;;;;;12.67;6.00;;;;;;;;5058337;28;45415;-75
2022/12/22 14:59:38;;;;;;;;;5.00;4.33;;;;;;;;5054429;28;45460;-75
2022/12/22 15:02:19;;;;;;;;;8.67;5.33;;;;;;;;5056963;28;45486;-75
2022/12/22 15:04:44;;;;;;;;;6.00;5.00;;;;;;;;5055905;28;45309;-75
2022/12/22 15:07:19;;;;;;;;;8.00;5.67;;;;;;;;5048659;28;45289;-75
2022/12/22 15:09:44;;;;;;;;;8.00;5.00;;;;;;;;5057903;28;45313;-75
2022/12/22 15:12:11;;;;;;;;;6.67;5.00;;;;;;;;5052625;28;46263;-75
2022/12/22 15:14:37;;;;;;;;;6.00;6.00;;;;;;;;5047598;28;45242;-75
2022/12/22 15:17:03;;;;;;;;;7.33;3.00;;;;;;;;5055812;28;45384;-75
2022/12/22 15:19:30;;;;;;;;;5.00;5.00;;;;;;;;5059165;28;45514;-75
2022/12/22 15:21:55;;;;;;;;;5.67;4.33;;;;;;;;5053385;28;46347;-75
2022/12/22 15:24:20;;;;;;;;;4.00;4.00;;;;;;;;5051012;28;44757;-75
2022/12/22 15:26:46;;;;;;;;;8.33;3.67;;;;;;;;5056736;28;45248;-75
2022/12/22 15:29:11;;;;;;;;;4.67;4.00;;;;;;;;5042514;28;45327;-75
2022/12/22 15:31:37;;;;;;;;;6.00;3.33;;;;;;;;5040036;28;47319;-75
2022/12/22 15:34:06;;;;;;;;;6.33;5.00;;;;;;;;5038304;28;45424;-75
2022/12/22 15:36:31;;;;;;;;;6.00;3.00;;;;;;;;5058272;28;45270;-76
2022/12/22 15:38:56;;;;;;;;;5.00;4.00;;;;;;;;5035942;28;45476;-75
2022/12/22 15:41:21;;;;;;;;;5.33;3.33;;;;;;;;5058181;28;45384;-75
2022/12/22 15:43:47;;;;;;;;;4.33;3.00;;;;;;;;5042543;28;45472;-75
2022/12/22 15:46:16;;;;;;;;;9.67;6.00;;;;;;;;5058407;28;45432;-75
2022/12/22 15:48:41;;;;;;;;;3.67;3.67;;;;;;;;5037898;28;45462;-76
2022/12/22 15:51:10;;;;;;;;;5.67;4.00;;;;;;;;5041232;28;47970;-75
2022/12/22 15:53:35;;;;;;;;;7.33;3.33;;;;;;;;5047967;28;45425;-75
2022/12/22 15:56:01;;;;;;;;;3.33;3.33;;;;;;;;5059592;28;45314;-75
2022/12/22 15:58:29;;;;;;;;;3.33;3.00;;;;;;;;5036293;28;45464;-75
2022/12/22 16:00:55;;;;;;;;;4.00;4.00;;;;;;;;5043015;28;45269;-75
2022/12/22 16:03:20;;;;;;;;;7.00;4.67;;;;;;;;5040822;28;45309;-75
2022/12/22 16:05:45;;;;;;;;;4.00;3.00;;;;;;;;5060461;28;45300;-75
2022/12/22 16:08:24;;;;;;;;;5.00;3.00;;;;;;;;5055936;28;44718;-75
2022/12/22 16:10:49;;;;;;;;;4.00;3.00;;;;;;;;5058290;28;45317;-76
2022/12/22 16:13:15;;;;;;;;;7.00;3.33;;;;;;;;5050531;28;45308;-77
2022/12/22 16:15:40;;;;;;;;;4.00;2.33;;;;;;;;5061074;28;45292;-77
2022/12/22 16:18:06;;;;;;;;;6.67;2.00;;;;;;;;5049757;28;45584;-77
2022/12/22 16:20:36;;;;;;;;;5.67;4.00;;;;;;;;5034462;28;47120;-76
2022/12/22 16:23:01;;;;;;;;;10.67;4.67;;;;;;;;5051357;28;45415;-76
2022/12/22 16:25:32;;;;;;;;;5.00;3.33;;;;;;;;5042840;28;45378;-76
2022/12/22 16:27:58;;;;;;;;;3.33;3.33;;;;;;;;5050478;28;45471;-76
2022/12/22 16:30:24;;;;;;;;;8.67;7.00;;;;;;;;5060106;28;45396;-76
2022/12/22 16:32:50;;;;;;;;;6.33;2.00;;;;;;;;5035726;28;45203;-76
2022/12/22 16:35:17;;;;;;;;;1.00;1.00;;;;;;;;5057996;28;45411;-77
2022/12/22 16:37:42;;;;;;;;;1.33;1.33;;;;;;;;5040273;28;46575;-76
2022/12/22 16:40:08;;;;;;;;;2.00;2.00;;;;;;;;5058532;28;45340;-76
2022/12/22 16:42:34;;;;;;;;;3.00;2.00;;;;;;;;5040649;28;45734;-77
2022/12/22 16:45:01;;;;;;;;;3.00;1.33;;;;;;;;5040801;28;45438;-79
2022/12/22 16:47:30;;;;;;;;;2.00;2.00;;;;;;;;5051865;28;45325;-78
2022/12/22 16:49:55;;;;;;;;;3.00;3.00;;;;;;;;5058836;28;46765;-78
2022/12/22 16:52:24;;;;;;;;;3.00;1.33;;;;;;;;5050908;28;45436;-78
2022/12/22 16:54:49;;;;;;;;;2.33;1.00;;;;;;;;5035672;28;45345;-78
2022/12/22 16:57:14;;;;;;;;;3.00;2.00;;;;;;;;5052507;28;45442;-77
2022/12/22 16:59:40;;;;;;;;;2.67;1.00;;;;;;;;5058791;28;45328;-77
2022/12/22 17:02:17;;;;;;;;;1.67;1.00;;;;;;;;5054058;28;45451;-77
2022/12/22 17:04:42;;;;;;;;;1.33;0.00;;;;;;;;5039396;28;45324;-78
2022/12/22 17:07:08;;;;;;;;;1.33;1.00;;;;;;;;5055148;28;45355;-77
2022/12/22 17:09:40;;;;;;;;;0.00;0.00;;;;;;;;5056419;28;45486;-77
2022/12/22 17:12:07;;;;;;;;;0.00;0.00;;;;;;;;5053310;28;45266;-77
2022/12/22 17:14:37;;;;;;;;;1.00;1.00;;;;;;;;5047084;28;45428;-77
2022/12/22 17:17:02;;;;;;;;;2.00;1.00;;;;;;;;5044742;28;45343;-77
2022/12/22 17:19:28;;;;;;;;;0.67;0.00;;;;;;;;5047067;28;45296;-77
2022/12/22 17:21:54;;;;;;;;;2.33;1.33;;;;;;;;5042342;28;45589;-77
2022/12/22 17:24:20;;;;;;;;;4.00;3.00;;;;;;;;5058185;28;45384;-77
2022/12/22 17:26:45;;;;;;;;;2.00;1.33;;;;;;;;5053269;28;45477;-77
2022/12/22 17:29:18;;;;;;;;;1.00;1.00;;;;;;;;5037014;28;46987;-77
2022/12/22 17:31:44;;;;;;;;;1.00;1.00;;;;;;;;5052687;28;46361;-77
2022/12/22 17:34:11;;;;;;;;;3.33;2.00;;;;;;;;5057220;28;45331;-78
2022/12/22 17:36:38;;;;;;;;;1.33;1.33;;;;;;;;5054855;28;45969;-75
2022/12/22 17:39:03;;;;;;;;;1.00;1.00;;;;;;;;5038446;28;45679;-76
2022/12/22 17:41:29;;;;;;;;;3.00;1.67;;;;;;;;5056635;28;45318;-76
2022/12/22 17:43:54;;;;;;;;;1.00;1.00;;;;;;;;5046481;28;45394;-76
2022/12/22 17:46:20;;;;;;;;;3.00;1.00;;;;;;;;5054684;28;45227;-77
2022/12/22 17:48:46;;;;;;;;;2.00;1.00;;;;;;;;5048644;28;45412;-76
2022/12/22 17:51:19;;;;;;;;;1.00;1.00;;;;;;;;5057185;28;45439;-75
2022/12/22 17:53:45;;;;;;;;;2.00;2.00;;;;;;;;5047143;28;45282;-76
2022/12/22 17:56:14;;;;;;;;;2.00;2.00;;;;;;;;5057736;28;45169;-75
2022/12/22 17:58:42;;;;;;;;;1.00;1.00;;;;;;;;5043897;28;46451;-76
2022/12/22 18:01:17;;;;;;;;;2.00;1.00;;;;;;;;5040051;28;46086;-75
2022/12/22 18:03:42;;;;;;;;;2.67;1.33;;;;;;;;5036310;28;45437;-76
2022/12/22 18:06:07;;;;;;;;;0.00;0.00;;;;;;;;5058557;28;45306;-76
2022/12/22 18:08:32;;;;;;;;;3.33;1.00;;;;;;;;5047926;28;45421;-76
2022/12/22 18:10:58;;;;;;;;;1.00;1.00;;;;;;;;5059231;28;45431;-76
2022/12/22 18:13:24;;;;;;;;;0.67;0.67;;;;;;;;5047771;28;45350;-77
2022/12/22 18:15:50;;;;;;;;;1.00;1.00;;;;;;;;5059232;28;45260;-76